Aviation Digital Data Service (ADDS)

Output produced by METARs form (0352 UTC 26 June 2019)
found at http://www.aviationweather.gov/metar/data/
 
Forecast for: WMKI (IPOH , MY)
Text: TAF WMKI 252300Z 2600/2700 VRB03KT 9000 FEW020
Forecast period: 0000 UTC 26 June 2019 to 0000 UTC 27 June 2019
Forecast type: FROM: standard forecast or significant change
Winds: variable direction winds at 3 MPH (3 knots; 1.5 m/s)
Visibility: 6 miles (9 km)
Ceiling: at least 12,000 feet AGL
Clouds: few clouds at 2000 feet AGL
Weather: no significant weather forecast for this period
Text: PROB30
Forecast period: 0700 to 1100 UTC 26 June 2019
Forecast type: TEMPORARY: The following changes expected for less than half the time period
Winds: from the SW (220 degrees) at 12 MPH (10 knots; 5.1 m/s)
Visibility: 4 miles (6 km)
Ceiling: at least 12,000 feet AGL
Clouds: few clouds at 1700 feet AGL
Weather: -TSRA  (light rain associated with thunderstorm(s))